createdAt,value
2018-04-12T00:00:39.408Z,13.42
2018-04-12T00:03:08.014Z,13.32
2018-04-12T00:05:36.603Z,13.25
2018-04-12T00:08:05.183Z,13.17
2018-04-12T00:10:33.755Z,13.19
2018-04-12T00:13:02.282Z,13.19
2018-04-12T00:15:31.656Z,13.22
2018-04-12T00:18:00.185Z,13.05
2018-04-12T00:20:28.799Z,13.14
2018-04-12T00:22:57.370Z,13.11
2018-04-12T00:25:25.971Z,13.10
2018-04-12T00:27:54.707Z,13.06
2018-04-12T00:30:23.379Z,13.05
2018-04-12T00:32:52.401Z,12.96
2018-04-12T00:35:20.935Z,12.90
2018-04-12T00:37:49.542Z,12.84
2018-04-12T00:40:18.092Z,12.78
2018-04-12T00:42:46.787Z,12.81
2018-04-12T00:45:15.407Z,12.02
2018-04-12T00:47:43.925Z,12.67
2018-04-12T00:50:13.194Z,12.59
2018-04-12T00:52:41.790Z,12.65
2018-04-12T00:55:10.315Z,12.57
2018-04-12T00:57:38.911Z,12.59
2018-04-12T01:00:07.638Z,12.51
2018-04-12T01:02:36.265Z,12.47
2018-04-12T01:05:05.018Z,12.43
2018-04-12T01:07:33.572Z,12.42
2018-04-12T01:10:02.291Z,12.39
2018-04-12T01:12:30.958Z,12.49
2018-04-12T01:15:00.357Z,12.47
2018-04-12T01:17:28.890Z,12.33
2018-04-12T01:19:57.615Z,12.31
2018-04-12T01:22:26.840Z,12.24
2018-04-12T01:24:55.435Z,12.27
2018-04-12T01:27:24.091Z,12.23
2018-04-12T01:29:52.716Z,12.20
2018-04-12T01:32:21.330Z,12.23
2018-04-12T01:34:49.917Z,12.23
2018-04-12T01:37:18.516Z,12.30
2018-04-12T01:39:47.098Z,12.30
2018-04-12T01:42:15.662Z,12.24
2018-04-12T01:44:44.285Z,12.18
2018-04-12T01:47:12.962Z,12.18
2018-04-12T01:49:41.678Z,12.10
2018-04-12T01:52:10.243Z,12.09
2018-04-12T01:54:38.929Z,11.99
2018-04-12T01:57:07.641Z,12.06
2018-04-12T01:59:36.228Z,11.95
2018-04-12T02:02:04.888Z,11.91
2018-04-12T02:04:33.473Z,11.88
2018-04-12T02:07:02.228Z,11.93
2018-04-12T02:09:30.850Z,11.85
2018-04-12T02:11:59.395Z,11.82
2018-04-12T02:14:27.993Z,11.77
2018-04-12T02:16:56.550Z,11.69
2018-04-12T02:19:25.242Z,11.67
2018-04-12T02:21:53.769Z,11.59
2018-04-12T02:24:23.126Z,11.56
2018-04-12T02:26:51.691Z,11.54
2018-04-12T02:29:20.224Z,11.48
2018-04-12T02:31:48.798Z,11.47
2018-04-12T02:34:17.368Z,11.44
2018-04-12T02:36:45.944Z,11.34
2018-04-12T02:39:14.709Z,11.29
2018-04-12T02:41:43.301Z,11.28
2018-04-12T02:44:11.850Z,11.25
2018-04-12T02:46:40.430Z,11.27
2018-04-12T02:49:09.600Z,11.23
2018-04-12T02:51:38.204Z,11.14
2018-04-12T02:54:06.944Z,10.29
2018-04-12T02:56:35.609Z,11.12
2018-04-12T02:59:04.890Z,11.11
2018-04-12T03:01:33.709Z,11.08
2018-04-12T03:04:02.442Z,11.12
2018-04-12T03:06:31.179Z,11.11
2018-04-12T03:08:59.993Z,11.11
2018-04-12T03:11:28.719Z,11.11
2018-04-12T03:13:57.436Z,11.08
2018-04-12T03:16:26.159Z,11.14
2018-04-12T03:18:54.786Z,11.06
2018-04-12T03:21:23.505Z,11.05
2018-04-12T03:23:52.133Z,11.02
2018-04-12T03:26:20.846Z,10.99
2018-04-12T03:28:49.465Z,11.00
2018-04-12T03:31:18.186Z,10.99
2018-04-12T03:33:46.909Z,10.87
2018-04-12T03:36:15.534Z,10.88
2018-04-12T03:38:44.162Z,10.91
2018-04-12T03:41:12.875Z,10.84
2018-04-12T03:43:42.075Z,10.75
2018-04-12T03:46:10.773Z,10.69
2018-04-12T03:48:39.482Z,10.65
2018-04-12T03:51:08.062Z,10.60
2018-04-12T03:53:37.705Z,10.70
2018-04-12T03:56:06.417Z,10.60
2018-04-12T03:58:35.040Z,10.63
2018-04-12T04:01:03.755Z,10.64
2018-04-12T04:03:32.460Z,10.69
2018-04-12T04:06:01.098Z,10.76
2018-04-12T04:08:29.817Z,10.78
2018-04-12T04:10:58.542Z,10.82
2018-04-12T04:13:27.226Z,10.84
2018-04-12T04:16:07.623Z,10.83
2018-04-12T04:18:47.989Z,10.87
2018-04-12T04:21:18.345Z,10.99
2018-04-12T04:23:47.119Z,11.07
2018-04-12T04:26:15.869Z,11.21
2018-04-12T04:28:44.684Z,11.25
2018-04-12T04:31:13.303Z,11.37
2018-04-12T04:33:41.944Z,11.56
2018-04-12T04:36:10.745Z,11.68
2018-04-12T04:38:40.073Z,11.83
2018-04-12T04:41:08.761Z,12.04
2018-04-12T04:43:37.333Z,12.18
2018-04-12T04:46:05.966Z,12.40
2018-04-12T04:48:34.671Z,12.70
2018-04-12T04:51:03.378Z,13.19
2018-04-12T04:53:32.100Z,13.93
2018-04-12T04:56:00.732Z,14.63
2018-04-12T04:58:29.448Z,15.23
2018-04-12T05:00:58.080Z,15.78
2018-04-12T05:03:26.907Z,16.35
2018-04-12T05:05:55.555Z,16.58
2018-04-12T05:08:24.236Z,17.20
2018-04-12T05:10:53.281Z,16.89
2018-04-12T05:13:21.858Z,17.91
2018-04-12T05:15:50.602Z,18.09
2018-04-12T05:18:19.239Z,18.82
2018-04-12T05:20:47.847Z,18.89
2018-04-12T05:23:16.463Z,18.77
2018-04-12T05:25:45.189Z,19.15
2018-04-12T05:28:13.820Z,19.06
2018-04-12T05:30:42.529Z,19.53
2018-04-12T05:33:11.147Z,19.93
2018-04-12T05:35:39.873Z,19.88
2018-04-12T05:38:08.574Z,20.18
2018-04-12T05:40:37.314Z,20.23
2018-04-12T05:43:06.842Z,20.53
2018-04-12T05:45:35.565Z,20.90
2018-04-12T05:48:05.047Z,21.25
2018-04-12T05:50:33.808Z,21.26
2018-04-12T05:53:02.444Z,21.56
2018-04-12T05:55:31.148Z,21.57
2018-04-12T05:57:59.855Z,22.22
2018-04-12T06:00:28.501Z,22.41
2018-04-12T06:02:57.215Z,22.24
2018-04-12T06:05:25.937Z,22.18
2018-04-12T06:07:54.460Z,22.22
2018-04-12T06:10:23.046Z,22.70
2018-04-12T06:12:51.804Z,22.50
2018-04-12T06:15:20.424Z,22.69
2018-04-12T06:17:49.117Z,22.70
2018-04-12T06:20:18.370Z,23.12
2018-04-12T06:22:47.093Z,23.47
2018-04-12T06:25:16.415Z,24.24
2018-04-12T06:27:45.145Z,25.36
2018-04-12T06:30:13.962Z,25.50
2018-04-12T06:32:42.579Z,25.18
2018-04-12T06:35:11.211Z,25.70
2018-04-12T06:37:39.926Z,25.97
2018-04-12T06:40:08.751Z,26.04
2018-04-12T06:42:37.374Z,25.99
2018-04-12T06:45:06.152Z,26.32
2018-04-12T06:47:34.811Z,26.05
2018-04-12T06:50:03.504Z,26.01
2018-04-12T06:52:32.175Z,26.22
2018-04-12T06:55:01.050Z,26.88
2018-04-12T06:57:29.797Z,26.68
2018-04-12T06:59:58.517Z,26.12
2018-04-12T07:02:27.156Z,26.07
2018-04-12T07:04:56.571Z,25.86
2018-04-12T07:07:25.185Z,25.94
2018-04-12T07:09:55.865Z,25.66
2018-04-12T07:12:26.345Z,25.79
2018-04-12T07:14:55.065Z,26.23
2018-04-12T07:17:23.786Z,26.70
2018-04-12T07:19:52.606Z,26.17
2018-04-12T07:22:21.157Z,25.95
2018-04-12T07:24:49.851Z,27.29
2018-04-12T07:27:18.675Z,28.05
2018-04-12T07:29:47.316Z,26.86
2018-04-12T07:32:16.016Z,27.38
2018-04-12T07:34:44.816Z,27.13
2018-04-12T07:37:13.462Z,27.39
2018-04-12T07:39:43.823Z,27.23
2018-04-12T07:42:12.613Z,27.41
2018-04-12T07:44:41.329Z,27.59
2018-04-12T07:47:09.969Z,27.57
2018-04-12T07:49:38.674Z,27.00
2018-04-12T07:52:07.339Z,27.75
2018-04-12T07:54:35.926Z,28.37
2018-04-12T07:57:04.642Z,28.20
2018-04-12T07:59:33.360Z,28.42
2018-04-12T08:02:02.116Z,27.69
2018-04-12T08:04:37.045Z,27.78
2018-04-12T08:07:06.941Z,28.53
2018-04-12T08:09:35.595Z,27.85
2018-04-12T08:12:05.073Z,27.75
2018-04-12T08:14:33.829Z,28.38
2018-04-12T08:17:02.649Z,28.31
2018-04-12T08:19:31.472Z,28.55
2018-04-12T08:22:00.145Z,29.11
2018-04-12T08:24:28.914Z,29.50
2018-04-12T08:26:57.637Z,29.38
2018-04-12T08:29:26.443Z,29.24
2018-04-12T08:31:55.179Z,29.34
2018-04-12T08:34:23.800Z,29.96
2018-04-12T08:36:52.523Z,30.03
2018-04-12T08:39:21.345Z,29.96
2018-04-12T08:41:49.996Z,29.64
2018-04-12T08:44:18.691Z,29.03
2018-04-12T08:46:47.446Z,28.67
2018-04-12T08:49:16.235Z,29.50
2018-04-12T08:51:44.963Z,29.90
2018-04-12T08:54:13.639Z,30.21
2018-04-12T08:56:42.436Z,29.86
2018-04-12T08:59:11.225Z,30.28
2018-04-12T09:01:39.845Z,29.58
2018-04-12T09:04:08.587Z,30.29
2018-04-12T09:06:37.289Z,29.81
2018-04-12T09:09:06.136Z,30.29
2018-04-12T09:11:34.757Z,31.13
2018-04-12T09:14:03.525Z,31.04
2018-04-12T09:16:32.276Z,30.51
2018-04-12T09:19:00.996Z,29.98
2018-04-12T09:21:29.802Z,30.48
2018-04-12T09:23:58.541Z,31.15
2018-04-12T09:26:27.338Z,31.37
2018-04-12T09:28:57.094Z,30.57
2018-04-12T09:31:25.815Z,30.57
2018-04-12T09:33:54.458Z,30.53
2018-04-12T09:36:24.357Z,31.16
2018-04-12T09:38:53.080Z,32.53
2018-04-12T09:41:22.421Z,31.73
2018-04-12T09:43:51.108Z,31.55
2018-04-12T09:46:19.860Z,30.87
2018-04-12T09:48:48.669Z,30.39
2018-04-12T09:51:17.391Z,31.36
2018-04-12T09:53:46.039Z,31.97
2018-04-12T09:56:14.718Z,31.26
2018-04-12T09:58:43.485Z,30.50
2018-04-12T10:01:16.235Z,30.89
2018-04-12T10:03:44.972Z,31.17
2018-04-12T10:06:20.060Z,31.88
2018-04-12T10:08:54.436Z,31.63
2018-04-12T10:11:23.193Z,31.64
2018-04-12T10:13:51.949Z,32.02
2018-04-12T10:16:20.769Z,31.73
2018-04-12T10:18:49.895Z,31.55
2018-04-12T10:21:18.504Z,32.01
2018-04-12T10:23:47.333Z,31.55
2018-04-12T10:26:15.959Z,31.50
2018-04-12T10:28:44.749Z,31.85
2018-04-12T10:31:13.600Z,31.62
2018-04-12T10:33:42.322Z,31.93
2018-04-12T10:36:11.150Z,32.21
2018-04-12T10:38:39.909Z,32.12
2018-04-12T10:41:08.590Z,32.81
2018-04-12T10:43:37.311Z,32.07
2018-04-12T10:46:06.132Z,31.65
2018-04-12T10:48:34.854Z,31.77
2018-04-12T10:51:03.675Z,32.38
2018-04-12T10:53:33.305Z,32.42
2018-04-12T10:56:02.125Z,32.89
2018-04-12T10:58:30.915Z,32.53
2018-04-12T11:00:59.671Z,32.80
2018-04-12T11:03:31.301Z,31.71
2018-04-12T11:06:01.016Z,31.67
2018-04-12T11:08:29.851Z,31.39
2018-04-12T11:10:58.569Z,31.99
2018-04-12T11:13:28.196Z,32.27
2018-04-12T11:15:56.887Z,31.83
2018-04-12T11:18:25.910Z,31.87
2018-04-12T11:20:54.660Z,32.61
2018-04-12T11:23:23.388Z,32.24
2018-04-12T11:25:52.004Z,31.47
2018-04-12T11:28:20.638Z,31.20
2018-04-12T11:30:49.417Z,32.49
2018-04-12T11:33:21.709Z,32.00
2018-04-12T11:35:50.500Z,31.96
2018-04-12T11:38:19.349Z,32.36
2018-04-12T11:40:48.854Z,32.51
2018-04-12T11:43:17.972Z,31.87
2018-04-12T11:45:46.696Z,30.38
2018-04-12T11:48:15.427Z,30.04
2018-04-12T11:50:45.319Z,29.77
2018-04-12T11:53:14.016Z,29.20
2018-04-12T11:55:42.807Z,28.72
2018-04-12T11:58:11.575Z,28.04
2018-04-12T12:00:41.276Z,27.92
2018-04-12T12:03:10.034Z,27.82
2018-04-12T12:05:39.683Z,27.53
2018-04-12T12:08:08.507Z,27.25
2018-04-12T12:10:37.362Z,27.28
2018-04-12T12:13:06.026Z,26.96
2018-04-12T12:15:34.870Z,27.08
2018-04-12T12:18:03.528Z,27.45
2018-04-12T12:20:32.214Z,27.50
2018-04-12T12:23:01.041Z,27.32
2018-04-12T12:25:29.778Z,26.90
2018-04-12T12:27:58.582Z,27.06
2018-04-12T12:30:27.305Z,27.00
2018-04-12T12:32:56.134Z,27.27
2018-04-12T12:35:24.850Z,27.54
2018-04-12T12:37:54.573Z,27.66
2018-04-12T12:40:23.295Z,27.21
2018-04-12T12:42:52.083Z,27.27
2018-04-12T12:45:20.841Z,27.13
2018-04-12T12:47:51.066Z,27.33
2018-04-12T12:50:19.789Z,27.12
2018-04-12T12:52:48.573Z,27.26
2018-04-12T12:55:17.834Z,27.14
2018-04-12T12:57:46.662Z,27.08
2018-04-12T13:00:15.478Z,26.95
2018-04-12T13:02:44.205Z,27.08
2018-04-12T13:05:12.932Z,27.27
2018-04-12T13:07:41.644Z,27.17
2018-04-12T13:10:10.447Z,27.30
2018-04-12T13:12:39.190Z,27.12
2018-04-12T13:17:42.520Z,27.03
2018-04-12T13:20:11.283Z,27.17
2018-04-12T13:22:40.004Z,27.19
2018-04-12T13:25:08.796Z,27.19
2018-04-12T13:27:37.549Z,27.23
2018-04-12T13:30:06.263Z,27.29
2018-04-12T13:32:34.984Z,27.08
2018-04-12T13:35:03.706Z,27.25
2018-04-12T13:37:32.431Z,27.27
2018-04-12T13:40:01.157Z,27.26
2018-04-12T13:42:29.916Z,27.29
2018-04-12T13:44:58.795Z,27.42
2018-04-12T13:47:28.419Z,27.30
2018-04-12T13:49:57.245Z,27.06
2018-04-12T13:52:25.967Z,27.15
2018-04-12T13:54:54.695Z,27.17
2018-04-12T13:57:23.299Z,27.18
2018-04-12T13:59:51.928Z,27.20
2018-04-12T14:02:20.653Z,27.25
2018-04-12T14:04:49.374Z,27.10
2018-04-12T14:07:18.194Z,27.17
2018-04-12T14:09:47.618Z,27.08
2018-04-12T14:12:16.317Z,27.03
2018-04-12T14:14:44.963Z,26.93
2018-04-12T14:17:13.940Z,27.07
2018-04-12T14:19:42.759Z,27.10
2018-04-12T14:22:11.598Z,26.96
2018-04-12T14:24:40.405Z,27.05
2018-04-12T14:27:09.179Z,26.95
2018-04-12T14:29:37.806Z,27.00
2018-04-12T14:32:06.520Z,26.88
2018-04-12T14:34:35.236Z,26.92
2018-04-12T14:37:03.964Z,26.87
2018-04-12T14:39:32.686Z,26.95
2018-04-12T14:42:01.471Z,26.95
2018-04-12T14:44:30.226Z,26.97
2018-04-12T14:46:59.048Z,26.95
2018-04-12T14:49:28.371Z,26.86
2018-04-12T14:51:56.992Z,26.66
2018-04-12T14:54:25.714Z,26.82
2018-04-12T14:56:54.370Z,26.83
2018-04-12T14:59:22.965Z,26.74
2018-04-12T15:01:51.677Z,26.73
2018-04-12T15:04:20.399Z,26.72
2018-04-12T15:06:49.225Z,26.69
2018-04-12T15:09:17.881Z,26.68
2018-04-12T15:11:46.581Z,26.62
2018-04-12T15:14:15.289Z,26.53
2018-04-12T15:16:43.921Z,26.56
2018-04-12T15:19:12.599Z,26.47
2018-04-12T15:21:42.080Z,26.40
2018-04-12T15:24:10.681Z,26.32
2018-04-12T15:26:39.400Z,26.29
2018-04-12T15:29:08.119Z,26.30
2018-04-12T15:31:36.741Z,26.22
2018-04-12T15:34:05.369Z,26.16
2018-04-12T15:36:34.101Z,26.09
2018-04-12T15:39:02.674Z,26.04
2018-04-12T15:41:31.336Z,26.01
2018-04-12T15:43:59.951Z,25.92
2018-04-12T15:46:28.660Z,25.90
2018-04-12T15:48:57.395Z,25.88
2018-04-12T15:51:26.093Z,25.82
2018-04-12T15:53:54.735Z,25.71
2018-04-12T15:56:24.163Z,25.71
2018-04-12T15:58:52.764Z,25.61
2018-04-12T16:01:21.540Z,25.53
2018-04-12T16:03:50.233Z,25.45
2018-04-12T16:06:18.952Z,25.32
2018-04-12T16:08:48.573Z,25.21
2018-04-12T16:11:17.213Z,25.14
2018-04-12T16:13:45.920Z,25.05
2018-04-12T16:16:14.641Z,25.02
2018-04-12T16:18:43.146Z,24.92
2018-04-12T16:21:12.235Z,24.83
2018-04-12T16:23:41.707Z,24.74
2018-04-12T16:26:10.531Z,24.66
2018-04-12T16:28:39.167Z,24.59
2018-04-12T16:31:07.769Z,24.51
2018-04-12T16:33:36.496Z,24.37
2018-04-12T16:36:05.202Z,24.14
2018-04-12T16:38:33.920Z,24.18
2018-04-12T16:41:03.663Z,24.01
2018-04-12T16:43:32.253Z,23.94
2018-04-12T16:46:00.968Z,23.82
2018-04-12T16:48:29.608Z,23.71
2018-04-12T16:50:58.526Z,23.59
2018-04-12T16:53:27.281Z,23.56
2018-04-12T16:55:55.897Z,23.39
2018-04-12T16:58:24.518Z,23.30
2018-04-12T17:00:53.137Z,23.29
2018-04-12T17:03:21.862Z,23.19
2018-04-12T17:05:50.583Z,23.10
2018-04-12T17:08:19.136Z,23.10
2018-04-12T17:10:47.837Z,23.05
2018-04-12T17:13:16.547Z,22.99
2018-04-12T17:15:45.176Z,22.96
2018-04-12T17:18:13.809Z,22.90
2018-04-12T17:20:42.612Z,22.82
2018-04-12T17:23:11.342Z,22.72
2018-04-12T17:25:40.866Z,22.56
2018-04-12T17:28:09.599Z,22.40
2018-04-12T17:30:38.303Z,22.30
2018-04-12T17:33:06.924Z,22.17
2018-04-12T17:35:35.462Z,22.06
2018-04-12T17:38:04.090Z,21.99
2018-04-12T17:40:32.790Z,21.89
2018-04-12T17:43:01.484Z,21.83
2018-04-12T17:45:30.140Z,21.78
2018-04-12T17:47:58.770Z,21.75
2018-04-12T17:50:27.360Z,21.53
2018-04-12T17:52:56.017Z,21.58
2018-04-12T17:55:24.687Z,21.55
2018-04-12T17:57:53.251Z,21.50
2018-04-12T18:00:21.966Z,21.56
2018-04-12T18:02:50.683Z,21.49
2018-04-12T18:05:19.406Z,21.50
2018-04-12T18:07:48.701Z,21.47
2018-04-12T18:10:17.462Z,21.43
2018-04-12T18:12:46.090Z,21.37
2018-04-12T18:15:14.683Z,21.33
2018-04-12T18:17:43.236Z,21.24
2018-04-12T18:20:11.959Z,21.21
2018-04-12T18:22:40.630Z,21.10
2018-04-12T18:25:09.165Z,21.03
2018-04-12T18:27:37.902Z,20.98
2018-04-12T18:30:06.525Z,20.95
2018-04-12T18:32:35.257Z,20.88
2018-04-12T18:35:04.645Z,20.83
2018-04-12T18:37:33.353Z,20.80
2018-04-12T18:40:01.916Z,20.74
2018-04-12T18:42:30.637Z,20.75
2018-04-12T18:44:59.257Z,20.65
2018-04-12T18:47:28.682Z,20.62
2018-04-12T18:49:57.404Z,20.57
2018-04-12T18:52:26.132Z,20.38
2018-04-12T18:54:54.752Z,20.26
2018-04-12T18:57:23.569Z,20.15
2018-04-12T18:59:52.189Z,20.08
2018-04-12T19:02:20.912Z,19.97
2018-04-12T19:04:49.544Z,19.82
2018-04-12T19:07:18.073Z,19.71
2018-04-12T19:09:46.694Z,19.78
2018-04-12T19:12:15.307Z,19.85
2018-04-12T19:14:44.022Z,19.86
2018-04-12T19:17:12.676Z,19.86
2018-04-12T19:19:41.343Z,19.87
2018-04-12T19:22:09.994Z,19.88
2018-04-12T19:24:38.712Z,19.85
2018-04-12T19:27:07.319Z,19.79
2018-04-12T19:29:36.011Z,19.74
2018-04-12T19:32:04.597Z,19.73
2018-04-12T19:34:33.293Z,19.73
2018-04-12T19:37:02.017Z,19.70
2018-04-12T19:39:30.637Z,19.62
2018-04-12T19:41:59.477Z,19.47
2018-04-12T19:44:28.180Z,19.37
2018-04-12T19:46:56.779Z,19.30
2018-04-12T19:49:25.556Z,19.21
2018-04-12T19:51:54.246Z,19.18
2018-04-12T19:54:22.972Z,19.04
2018-04-12T19:56:51.618Z,19.02
2018-04-12T19:59:20.211Z,19.01
2018-04-12T20:01:48.936Z,19.11
2018-04-12T20:04:17.585Z,19.13
2018-04-12T20:06:46.285Z,19.12
2018-04-12T20:09:14.810Z,19.13
2018-04-12T20:11:43.674Z,19.17
2018-04-12T20:14:15.067Z,19.15
2018-04-12T20:16:43.714Z,19.09
2018-04-12T20:19:12.394Z,18.98
2018-04-12T20:21:40.923Z,18.96
2018-04-12T20:24:10.065Z,18.99
2018-04-12T20:26:38.766Z,18.93
2018-04-12T20:29:07.483Z,18.82
2018-04-12T20:31:36.104Z,18.87
2018-04-12T20:34:04.957Z,18.88
2018-04-12T20:36:34.451Z,18.74
2018-04-12T20:39:03.191Z,18.77
2018-04-12T20:41:31.895Z,18.86
2018-04-12T20:44:00.618Z,18.69
2018-04-12T20:46:29.341Z,18.58
2018-04-12T20:48:57.924Z,18.63
2018-04-12T20:51:26.581Z,18.57
2018-04-12T20:53:55.114Z,17.83
2018-04-12T20:56:23.825Z,18.40
2018-04-12T20:58:52.547Z,18.39
2018-04-12T21:01:21.268Z,18.38
2018-04-12T21:03:49.889Z,18.16
2018-04-12T21:06:18.511Z,18.10
2018-04-12T21:08:47.332Z,17.89
2018-04-12T21:11:15.930Z,17.76
2018-04-12T21:13:44.592Z,17.63
2018-04-12T21:16:13.105Z,17.63
2018-04-12T21:18:41.820Z,17.57
2018-04-12T21:21:10.540Z,17.54
2018-04-12T21:23:39.265Z,17.38
2018-04-12T21:26:08.787Z,17.35
2018-04-12T21:28:37.423Z,17.39
2018-04-12T21:31:07.258Z,17.30
2018-04-12T21:33:35.957Z,17.41
2018-04-12T21:36:04.580Z,17.45
2018-04-12T21:38:33.194Z,17.50
2018-04-12T21:41:01.823Z,17.50
2018-04-12T21:43:30.455Z,17.45
2018-04-12T21:45:59.172Z,17.44
2018-04-12T21:48:27.888Z,17.48
2018-04-12T21:50:56.611Z,17.43
2018-04-12T21:53:26.240Z,17.37
2018-04-12T21:55:54.956Z,17.30
2018-04-12T21:58:23.599Z,17.23
2018-04-12T22:00:53.206Z,17.21
2018-04-12T22:03:21.825Z,17.13
2018-04-12T22:05:50.480Z,17.06
2018-04-12T22:08:20.975Z,16.89
2018-04-12T22:10:49.698Z,16.99
2018-04-12T22:13:18.399Z,16.98
2018-04-12T22:15:49.007Z,17.08
2018-04-12T22:18:17.668Z,17.10
2018-04-12T22:20:46.304Z,17.07
2018-04-12T22:23:15.013Z,17.05
2018-04-12T22:25:43.734Z,17.04
2018-04-12T22:28:12.457Z,17.02
2018-04-12T22:30:41.341Z,17.04
2018-04-12T22:33:09.958Z,17.04
2018-04-12T22:35:38.722Z,17.05
2018-04-12T22:38:07.442Z,16.98
2018-04-12T22:40:36.168Z,16.94
2018-04-12T22:43:04.889Z,16.95
2018-04-12T22:45:33.899Z,16.87
2018-04-12T22:48:02.545Z,16.74
2018-04-12T22:50:31.253Z,16.67
2018-04-12T22:52:59.978Z,16.56
2018-04-12T22:55:28.569Z,16.49
2018-04-12T22:57:57.319Z,16.53
2018-04-12T23:00:26.069Z,16.48
2018-04-12T23:02:54.865Z,16.54
2018-04-12T23:05:23.601Z,16.49
2018-04-12T23:07:52.415Z,16.33
2018-04-12T23:10:21.228Z,16.25
2018-04-12T23:12:49.868Z,16.22
2018-04-12T23:15:18.619Z,16.09
2018-04-12T23:17:48.036Z,16.07
2018-04-12T23:20:16.700Z,16.13
2018-04-12T23:22:45.454Z,16.16
2018-04-12T23:25:14.264Z,16.13
2018-04-12T23:27:43.087Z,16.05
2018-04-12T23:30:11.813Z,15.92
2018-04-12T23:32:40.632Z,15.80
2018-04-12T23:35:09.370Z,15.75
2018-04-12T23:37:38.174Z,15.68
2018-04-12T23:40:06.997Z,15.75
2018-04-12T23:42:35.717Z,15.72
2018-04-12T23:45:04.539Z,15.64
2018-04-12T23:47:33.363Z,15.64
2018-04-12T23:50:02.094Z,15.58
2018-04-12T23:52:30.809Z,15.43
2018-04-12T23:54:59.529Z,15.48
2018-04-12T23:57:28.307Z,15.41
2018-04-12T23:59:57.055Z,15.38
